createdAt,value
2016-10-08T00:00:33.157Z,1014.99
2016-10-08T00:01:33.178Z,1014.99
2016-10-08T00:02:33.199Z,1014.97
2016-10-08T00:03:33.222Z,1015
2016-10-08T00:04:33.292Z,1015.03
2016-10-08T00:05:33.261Z,1015.02
2016-10-08T00:06:33.281Z,1015.02
2016-10-08T00:07:33.302Z,1015.07
2016-10-08T00:08:33.323Z,1015.04
2016-10-08T00:09:33.348Z,1015.01
2016-10-08T00:10:33.364Z,1015.02
2016-10-08T00:11:33.385Z,1015.03
2016-10-08T00:13:33.729Z,1014.98
2016-10-08T00:14:33.447Z,1014.93
2016-10-08T00:15:33.468Z,1014.93
2016-10-08T00:16:33.491Z,1014.94
2016-10-08T00:17:33.508Z,1014.95
2016-10-08T00:18:33.529Z,1014.96
2016-10-08T00:19:33.552Z,1014.93
2016-10-08T00:20:33.571Z,1014.96
2016-10-08T00:21:33.593Z,1014.93
2016-10-08T00:22:33.614Z,1014.91
2016-10-08T00:23:33.633Z,1014.88
2016-10-08T00:24:33.656Z,1014.9
2016-10-08T00:25:33.676Z,1014.91
2016-10-08T00:26:33.694Z,1014.9
2016-10-08T00:27:33.715Z,1014.84
2016-10-08T00:29:33.756Z,1014.84
2016-10-08T00:30:33.777Z,1014.85
2016-10-08T00:31:33.798Z,1014.83
2016-10-08T00:32:33.818Z,1014.78
2016-10-08T00:33:33.839Z,1014.75
2016-10-08T00:34:33.859Z,1014.75
2016-10-08T00:35:33.882Z,1014.8
2016-10-08T00:36:33.900Z,1014.76
2016-10-08T00:37:33.923Z,1014.77
2016-10-08T00:38:33.942Z,1014.77
2016-10-08T00:39:33.964Z,1014.78
2016-10-08T00:40:33.985Z,1014.78
2016-10-08T00:41:34.006Z,1014.75
2016-10-08T00:42:34.027Z,1014.78
2016-10-08T00:43:34.044Z,1014.76
2016-10-08T00:45:34.086Z,1014.74
2016-10-08T00:46:34.109Z,1014.71
2016-10-08T00:47:34.129Z,1014.7
2016-10-08T00:48:34.147Z,1014.68
2016-10-08T00:49:34.170Z,1014.67
2016-10-08T00:50:34.188Z,1014.69
2016-10-08T00:51:34.208Z,1014.72
2016-10-08T00:52:34.229Z,1014.72
2016-10-08T00:53:34.252Z,1014.69
2016-10-08T00:54:34.270Z,1014.66
2016-10-08T00:55:34.292Z,1014.67
2016-10-08T00:56:34.312Z,1014.67
2016-10-08T00:57:34.332Z,1014.64
2016-10-08T00:58:34.355Z,1014.65
2016-10-08T01:00:34.396Z,1014.64
2016-10-08T01:01:34.477Z,1014.63
2016-10-08T01:02:34.441Z,1014.68
2016-10-08T01:03:34.455Z,1014.66
2016-10-08T01:04:34.477Z,1014.66
2016-10-08T01:05:34.495Z,1014.67
2016-10-08T01:06:34.516Z,1014.63
2016-10-08T01:07:34.539Z,1014.64
2016-10-08T01:08:34.558Z,1014.6
2016-10-08T01:09:34.579Z,1014.62
2016-10-08T01:10:34.600Z,1014.6
2016-10-08T01:11:34.619Z,1014.58
2016-10-08T01:12:34.638Z,1014.55
2016-10-08T01:13:34.659Z,1014.51
2016-10-08T01:14:34.682Z,1014.49
2016-10-08T01:15:34.702Z,1014.49
2016-10-08T01:16:34.722Z,1014.5
2016-10-08T01:17:34.741Z,1014.41
2016-10-08T01:18:34.761Z,1014.45
2016-10-08T01:19:34.781Z,1014.44
2016-10-08T01:20:34.803Z,1014.41
2016-10-08T01:21:34.822Z,1014.49
2016-10-08T01:22:34.845Z,1014.51
2016-10-08T01:23:34.864Z,1014.49
2016-10-08T01:24:34.883Z,1014.5
2016-10-08T01:25:35.156Z,1014.52
2016-10-08T01:26:34.926Z,1014.53
2016-10-08T01:27:34.943Z,1014.53
2016-10-08T01:28:34.964Z,1014.49
2016-10-08T01:29:34.985Z,1014.46
2016-10-08T01:30:35.007Z,1014.43
2016-10-08T01:32:35.048Z,1014.43
2016-10-08T01:33:35.066Z,1014.42
2016-10-08T01:34:35.088Z,1014.39
2016-10-08T01:35:35.109Z,1014.35
2016-10-08T01:36:35.127Z,1014.38
2016-10-08T01:37:35.148Z,1014.39
2016-10-08T01:38:35.169Z,1014.36
2016-10-08T01:39:35.190Z,1014.32
2016-10-08T01:40:35.209Z,1014.32
2016-10-08T01:41:35.228Z,1014.33
2016-10-08T01:42:35.251Z,1014.3
2016-10-08T01:43:35.272Z,1014.25
2016-10-08T01:44:35.290Z,1014.26
2016-10-08T01:45:35.313Z,1014.26
2016-10-08T01:46:35.330Z,1014.24
2016-10-08T01:48:35.374Z,1014.2
2016-10-08T01:49:35.392Z,1014.2
2016-10-08T01:50:35.412Z,1014.19
2016-10-08T01:51:35.435Z,1014.21
2016-10-08T01:52:35.452Z,1014.19
2016-10-08T01:53:35.473Z,1014.15
2016-10-08T01:54:35.494Z,1014.21
2016-10-08T01:55:35.514Z,1014.22
2016-10-08T01:56:35.536Z,1014.27
2016-10-08T01:57:35.757Z,1014.27
2016-10-08T01:58:35.575Z,1014.27
2016-10-08T01:59:35.598Z,1014.26
2016-10-08T02:00:35.616Z,1014.26
2016-10-08T02:01:35.636Z,1014.2
2016-10-08T02:02:35.659Z,1014.21
2016-10-08T02:04:35.697Z,1014.18
2016-10-08T02:05:35.720Z,1014.22
2016-10-08T02:06:35.740Z,1014.14
2016-10-08T02:07:35.758Z,1014.13
2016-10-08T02:08:35.779Z,1014.17
2016-10-08T02:09:35.802Z,1014.21
2016-10-08T02:10:35.820Z,1014.18
2016-10-08T02:11:35.840Z,1014.16
2016-10-08T02:12:36.113Z,1014.13
2016-10-08T02:13:35.883Z,1014.14
2016-10-08T02:14:35.903Z,1014.12
2016-10-08T02:15:35.922Z,1014.16
2016-10-08T02:16:35.942Z,1014.13
2016-10-08T02:17:35.963Z,1014.13
2016-10-08T02:18:35.985Z,1014.16
2016-10-08T02:20:36.026Z,1014.12
2016-10-08T02:21:36.045Z,1014.15
2016-10-08T02:22:36.064Z,1014.16
2016-10-08T02:23:36.085Z,1014.16
2016-10-08T02:24:36.107Z,1014.15
2016-10-08T02:25:36.127Z,1014.17
2016-10-08T02:26:36.148Z,1014.13
2016-10-08T02:27:36.167Z,1014.16
2016-10-08T02:28:36.188Z,1014.12
2016-10-08T02:29:36.207Z,1014.13
2016-10-08T02:30:36.228Z,1014.15
2016-10-08T02:31:36.250Z,1014.17
2016-10-08T02:32:36.521Z,1014.13
2016-10-08T02:33:36.289Z,1014.16
2016-10-08T02:35:36.333Z,1014.11
2016-10-08T02:36:36.353Z,1014.1
2016-10-08T02:37:36.372Z,1014.16
2016-10-08T02:38:36.392Z,1014.14
2016-10-08T02:39:36.413Z,1014.12
2016-10-08T02:40:36.433Z,1014.1
2016-10-08T02:41:36.456Z,1014.13
2016-10-08T02:42:36.476Z,1014.09
2016-10-08T02:43:36.495Z,1014.04
2016-10-08T02:44:36.517Z,1014.06
2016-10-08T02:45:36.537Z,1014.01
2016-10-08T02:46:36.558Z,1014
2016-10-08T02:47:36.578Z,1014
2016-10-08T02:48:36.597Z,1013.99
2016-10-08T02:49:36.620Z,1014.05
2016-10-08T02:50:36.638Z,1014.04
2016-10-08T02:51:36.660Z,1014.01
2016-10-08T02:52:36.681Z,1014.03
2016-10-08T02:53:36.701Z,1014.05
2016-10-08T02:54:36.721Z,1014.07
2016-10-08T02:55:36.740Z,1014.1
2016-10-08T02:56:36.760Z,1014.09
2016-10-08T02:57:36.781Z,1014.09
2016-10-08T02:58:36.802Z,1014.09
2016-10-08T02:59:36.823Z,1014.11
2016-10-08T03:00:36.844Z,1014.07
2016-10-08T03:01:36.862Z,1014.11
2016-10-08T03:02:36.884Z,1014.09
2016-10-08T03:03:36.902Z,1014.12
2016-10-08T03:04:36.923Z,1014.12
2016-10-08T03:05:36.945Z,1014.13
2016-10-08T03:07:36.984Z,1014.1
2016-10-08T03:08:37.005Z,1014.03
2016-10-08T03:09:37.024Z,1014.04
2016-10-08T03:10:37.047Z,1014.05
2016-10-08T03:11:37.071Z,1014.04
2016-10-08T03:12:37.088Z,1013.97
2016-10-08T03:13:37.107Z,1014.05
2016-10-08T03:14:37.126Z,1014.04
2016-10-08T03:15:37.149Z,1013.96
2016-10-08T03:16:37.169Z,1013.99
2016-10-08T03:17:37.187Z,1014.01
2016-10-08T03:18:37.208Z,1014.02
2016-10-08T03:19:37.231Z,1013.95
2016-10-08T03:20:37.249Z,1014.01
2016-10-08T03:21:37.269Z,1013.99
2016-10-08T03:23:37.311Z,1014
2016-10-08T03:24:37.583Z,1013.98
2016-10-08T03:25:37.353Z,1013.98
2016-10-08T03:26:37.372Z,1013.95
2016-10-08T03:27:37.392Z,1013.91
2016-10-08T03:28:37.414Z,1013.97
2016-10-08T03:29:37.433Z,1013.98
2016-10-08T03:30:37.455Z,1013.95
2016-10-08T03:31:37.475Z,1014.02
2016-10-08T03:32:37.497Z,1014
2016-10-08T03:33:37.515Z,1014
2016-10-08T03:34:37.535Z,1013.94
2016-10-08T03:35:37.555Z,1014
2016-10-08T03:36:37.577Z,1013.93
2016-10-08T03:37:37.598Z,1014.01
2016-10-08T03:39:37.637Z,1013.94
2016-10-08T03:40:37.659Z,1013.97
2016-10-08T03:41:37.680Z,1013.98
2016-10-08T03:42:37.700Z,1013.95
2016-10-08T03:43:37.720Z,1013.98
2016-10-08T03:44:37.739Z,1013.97
2016-10-08T03:45:37.762Z,1014.02
2016-10-08T03:46:37.782Z,1013.98
2016-10-08T03:47:37.802Z,1013.96
2016-10-08T03:48:37.821Z,1013.94
2016-10-08T03:49:37.840Z,1013.99
2016-10-08T03:50:37.863Z,1013.94
2016-10-08T03:51:37.882Z,1013.94
2016-10-08T03:52:37.903Z,1013.96
2016-10-08T03:53:37.924Z,1013.97
2016-10-08T03:55:37.966Z,1013.94
2016-10-08T03:56:37.987Z,1013.96
2016-10-08T03:57:38.004Z,1013.94
2016-10-08T03:58:38.025Z,1013.92
2016-10-08T03:59:38.048Z,1013.95
2016-10-08T04:00:38.067Z,1013.92
2016-10-08T04:01:38.088Z,1013.94
2016-10-08T04:02:38.113Z,1013.95
2016-10-08T04:03:38.128Z,1013.94
2016-10-08T04:04:38.148Z,1013.94
2016-10-08T04:05:38.168Z,1013.93
2016-10-08T04:06:38.189Z,1013.94
2016-10-08T04:07:38.210Z,1013.95
2016-10-08T04:08:38.230Z,1013.94
2016-10-08T04:10:38.272Z,1013.92
2016-10-08T04:11:38.545Z,1013.89
2016-10-08T04:12:38.312Z,1013.9
2016-10-08T04:13:38.333Z,1013.91
2016-10-08T04:14:38.354Z,1013.92
2016-10-08T04:15:38.375Z,1013.92
2016-10-08T04:16:38.394Z,1013.92
2016-10-08T04:17:38.415Z,1013.92
2016-10-08T04:18:38.685Z,1013.93
2016-10-08T04:19:38.456Z,1013.92
2016-10-08T04:20:38.478Z,1013.96
2016-10-08T04:21:38.499Z,1013.97
2016-10-08T04:22:38.517Z,1013.97
2016-10-08T04:23:38.538Z,1013.97
2016-10-08T04:24:38.559Z,1013.96
2016-10-08T04:25:38.580Z,1013.94
2016-10-08T04:26:38.600Z,1013.96
2016-10-08T04:27:38.623Z,1013.93
2016-10-08T04:28:38.641Z,1013.87
2016-10-08T04:29:38.663Z,1013.97
2016-10-08T04:30:38.684Z,1013.98
2016-10-08T04:31:38.705Z,1013.98
2016-10-08T04:32:38.824Z,1013.95
2016-10-08T04:33:38.744Z,1014
2016-10-08T04:34:38.766Z,1013.97
2016-10-08T04:35:38.789Z,1013.98
2016-10-08T04:36:38.807Z,1013.97
2016-10-08T04:37:38.826Z,1014
2016-10-08T04:38:38.848Z,1014
2016-10-08T04:39:38.870Z,1014.02
2016-10-08T04:40:38.889Z,1014.01
2016-10-08T04:42:38.932Z,1013.98
2016-10-08T04:43:38.951Z,1013.98
2016-10-08T04:44:38.973Z,1013.96
2016-10-08T04:45:38.995Z,1013.95
2016-10-08T04:46:39.013Z,1013.97
2016-10-08T04:47:39.034Z,1014
2016-10-08T04:48:39.056Z,1014.02
2016-10-08T04:49:39.075Z,1013.98
2016-10-08T04:50:39.099Z,1014.02
2016-10-08T04:51:39.116Z,1014
2016-10-08T04:52:39.137Z,1014.02
2016-10-08T04:53:39.161Z,1014.01
2016-10-08T04:54:39.180Z,1014.01
2016-10-08T04:55:39.202Z,1014.01
2016-10-08T04:56:39.220Z,1014.01
2016-10-08T04:58:39.263Z,1014.08
2016-10-08T04:59:39.283Z,1014.08
2016-10-08T05:00:39.304Z,1014.11
2016-10-08T05:01:40.326Z,1014.11
2016-10-08T05:02:39.347Z,1014.1
2016-10-08T05:03:39.368Z,1014.08
2016-10-08T05:04:39.388Z,1014.09
2016-10-08T05:05:39.408Z,1014.1
2016-10-08T05:06:39.427Z,1014.1
2016-10-08T05:07:39.448Z,1014.11
2016-10-08T05:08:39.469Z,1014.04
2016-10-08T05:09:39.491Z,1014.09
2016-10-08T05:10:39.510Z,1014.1
2016-10-08T05:11:39.534Z,1014.09
2016-10-08T05:12:39.552Z,1014.08
2016-10-08T05:14:39.596Z,1014.09
2016-10-08T05:15:39.617Z,1014.06
2016-10-08T05:16:39.636Z,1014.07
2016-10-08T05:17:39.656Z,1014.05
2016-10-08T05:18:39.679Z,1014.01
2016-10-08T05:19:39.698Z,1014.08
2016-10-08T05:20:39.721Z,1014.13
2016-10-08T05:21:39.741Z,1014.09
2016-10-08T05:22:39.760Z,1014.15
2016-10-08T05:23:39.781Z,1014.12
2016-10-08T05:24:39.804Z,1014.12
2016-10-08T05:25:39.823Z,1014.17
2016-10-08T05:26:39.843Z,1014.17
2016-10-08T05:27:39.864Z,1014.19
2016-10-08T05:28:39.886Z,1014.17
2016-10-08T05:30:39.929Z,1014.16
2016-10-08T05:31:39.950Z,1014.17
2016-10-08T05:32:39.970Z,1014.15
2016-10-08T05:33:39.991Z,1014.19
2016-10-08T05:34:40.010Z,1014.12
2016-10-08T05:35:40.032Z,1014.14
2016-10-08T05:36:40.051Z,1014.17
2016-10-08T05:37:40.072Z,1014.18
2016-10-08T05:38:40.096Z,1014.16
2016-10-08T05:39:40.116Z,1014.17
2016-10-08T05:40:40.134Z,1014.17
2016-10-08T05:41:40.158Z,1014.18
2016-10-08T05:42:40.179Z,1014.18
2016-10-08T05:43:40.198Z,1014.18
2016-10-08T05:45:40.241Z,1014.19
2016-10-08T05:46:40.262Z,1014.23
2016-10-08T05:47:40.281Z,1014.23
2016-10-08T05:48:40.305Z,1014.21
2016-10-08T05:49:40.324Z,1014.26
2016-10-08T05:50:40.346Z,1014.23
2016-10-08T05:51:40.367Z,1014.25
2016-10-08T05:52:40.392Z,1014.26
2016-10-08T05:53:40.407Z,1014.28
2016-10-08T05:54:40.435Z,1014.29
2016-10-08T05:55:40.449Z,1014.26
2016-10-08T05:56:40.470Z,1014.28
2016-10-08T05:57:40.490Z,1014.29
2016-10-08T05:58:40.523Z,1014.29
2016-10-08T05:59:40.534Z,1014.3
2016-10-08T06:00:40.555Z,1014.3
2016-10-08T06:01:40.574Z,1014.33
2016-10-08T06:02:40.597Z,1014.31
2016-10-08T06:03:40.618Z,1014.34
2016-10-08T06:04:40.647Z,1014.36
2016-10-08T06:05:40.657Z,1014.33
2016-10-08T06:06:40.687Z,1014.35
2016-10-08T06:07:40.699Z,1014.35
2016-10-08T06:08:40.725Z,1014.37
2016-10-08T06:09:40.741Z,1014.38
2016-10-08T06:10:40.762Z,1014.41
2016-10-08T06:11:40.783Z,1014.39
2016-10-08T06:12:40.803Z,1014.41
2016-10-08T06:13:40.826Z,1014.39
2016-10-08T06:14:40.848Z,1014.43
2016-10-08T06:15:40.868Z,1014.42
2016-10-08T06:17:40.910Z,1014.43
2016-10-08T06:18:40.935Z,1014.42
2016-10-08T06:19:40.949Z,1014.44
2016-10-08T06:20:40.970Z,1014.43
2016-10-08T06:21:40.993Z,1014.42
2016-10-08T06:22:41.015Z,1014.44
2016-10-08T06:23:41.035Z,1014.46
2016-10-08T06:24:41.054Z,1014.47
2016-10-08T06:25:41.075Z,1014.46
2016-10-08T06:26:41.098Z,1014.46
2016-10-08T06:27:41.116Z,1014.47
2016-10-08T06:28:41.148Z,1014.5
2016-10-08T06:29:41.159Z,1014.48
2016-10-08T06:30:41.181Z,1014.46
2016-10-08T06:31:41.202Z,1014.48
2016-10-08T06:33:41.243Z,1014.45
2016-10-08T06:34:41.264Z,1014.53
2016-10-08T06:35:41.285Z,1014.5
2016-10-08T06:36:41.304Z,1014.5
2016-10-08T06:37:41.327Z,1014.54
2016-10-08T06:38:41.347Z,1014.53
2016-10-08T06:39:41.367Z,1014.53
2016-10-08T06:40:41.388Z,1014.52
2016-10-08T06:41:41.408Z,1014.52
2016-10-08T06:42:41.431Z,1014.55
2016-10-08T06:43:41.450Z,1014.59
2016-10-08T06:44:41.471Z,1014.56
2016-10-08T06:45:41.493Z,1014.6
2016-10-08T06:46:41.514Z,1014.58
2016-10-08T06:47:41.533Z,1014.56
2016-10-08T06:49:41.574Z,1014.59
2016-10-08T06:50:41.595Z,1014.6
2016-10-08T06:51:41.616Z,1014.61
2016-10-08T06:52:41.636Z,1014.62
2016-10-08T06:53:41.657Z,1014.68
2016-10-08T06:54:41.680Z,1014.63
2016-10-08T06:55:41.701Z,1014.66
2016-10-08T06:56:41.721Z,1014.67
2016-10-08T06:57:41.740Z,1014.67
2016-10-08T06:58:41.761Z,1014.64
2016-10-08T06:59:41.782Z,1014.7
2016-10-08T07:00:41.802Z,1014.72
2016-10-08T07:01:41.824Z,1014.72
2016-10-08T07:02:41.845Z,1014.73
2016-10-08T07:03:41.865Z,1014.76
2016-10-08T07:05:41.913Z,1014.71
2016-10-08T07:06:41.930Z,1014.75
2016-10-08T07:07:41.948Z,1014.76
2016-10-08T07:08:41.971Z,1014.79
2016-10-08T07:09:41.992Z,1014.75
2016-10-08T07:10:42.011Z,1014.76
2016-10-08T07:11:42.034Z,1014.81
2016-10-08T07:12:42.055Z,1014.8
2016-10-08T07:13:42.076Z,1014.81
2016-10-08T07:14:42.096Z,1014.8
2016-10-08T07:15:42.123Z,1014.79
2016-10-08T07:16:42.136Z,1014.79
2016-10-08T07:17:42.158Z,1014.8
2016-10-08T07:18:42.181Z,1014.81
2016-10-08T07:20:42.521Z,1014.79
2016-10-08T07:21:42.241Z,1014.83
2016-10-08T07:22:42.262Z,1014.8
2016-10-08T07:23:42.284Z,1014.81
2016-10-08T07:24:42.307Z,1014.8
2016-10-08T07:25:42.326Z,1014.85
2016-10-08T07:26:42.347Z,1014.85
2016-10-08T07:27:42.368Z,1014.9
2016-10-08T07:28:42.390Z,1014.88
2016-10-08T07:29:42.412Z,1014.87
2016-10-08T07:30:42.431Z,1014.91
2016-10-08T07:31:42.453Z,1014.89
2016-10-08T07:32:42.475Z,1014.95
2016-10-08T07:33:42.494Z,1014.95
2016-10-08T07:34:42.516Z,1014.99
2016-10-08T07:35:42.537Z,1015.03
2016-10-08T07:36:42.558Z,1015.02
2016-10-08T07:37:42.580Z,1015.05
2016-10-08T07:38:42.604Z,1015.07
2016-10-08T07:39:42.622Z,1015.06
2016-10-08T07:40:42.644Z,1015.09
2016-10-08T07:41:42.666Z,1015.12
2016-10-08T07:42:42.690Z,1015.1
2016-10-08T07:43:42.708Z,1015.15
2016-10-08T07:44:42.733Z,1015.15
2016-10-08T07:45:42.755Z,1015.21
2016-10-08T07:46:42.775Z,1015.15
2016-10-08T07:47:42.796Z,1015.16
2016-10-08T07:48:42.820Z,1015.1
2016-10-08T07:49:42.841Z,1015.13
2016-10-08T07:50:42.864Z,1015.12
2016-10-08T07:52:42.909Z,1015.15
2016-10-08T07:53:42.929Z,1015.13
2016-10-08T07:54:42.953Z,1015.11
2016-10-08T07:55:42.974Z,1015.09
2016-10-08T07:56:42.998Z,1015.13
2016-10-08T07:57:43.018Z,1015.13
2016-10-08T07:58:43.040Z,1015.12
2016-10-08T07:59:43.065Z,1015.12
2016-10-08T08:00:43.085Z,1015.13
2016-10-08T08:01:43.107Z,1015.11
2016-10-08T08:02:43.130Z,1015.12
2016-10-08T08:03:43.155Z,1015.1
2016-10-08T08:04:43.175Z,1015.12
2016-10-08T08:05:43.197Z,1015.17
2016-10-08T08:06:43.220Z,1015.19
2016-10-08T08:08:43.268Z,1015.22
2016-10-08T08:09:43.289Z,1015.22
2016-10-08T08:10:43.311Z,1015.25
2016-10-08T08:11:43.333Z,1015.25
2016-10-08T08:12:43.357Z,1015.23
2016-10-08T08:13:43.378Z,1015.28
2016-10-08T08:14:43.653Z,1015.2
2016-10-08T08:15:43.424Z,1015.23
2016-10-08T08:16:43.448Z,1015.24
2016-10-08T08:17:43.472Z,1015.26
2016-10-08T08:18:43.495Z,1015.26
2016-10-08T08:19:43.516Z,1015.26
2016-10-08T08:20:43.539Z,1015.26
2016-10-08T08:21:43.564Z,1015.3
2016-10-08T08:22:43.585Z,1015.25
2016-10-08T08:24:43.634Z,1015.28
2016-10-08T08:25:43.657Z,1015.33
2016-10-08T08:26:43.679Z,1015.33
2016-10-08T08:27:43.702Z,1015.32
2016-10-08T08:28:43.726Z,1015.36
2016-10-08T08:29:43.748Z,1015.33
2016-10-08T08:30:43.772Z,1015.38
2016-10-08T08:31:43.796Z,1015.37
2016-10-08T08:32:43.821Z,1015.38
2016-10-08T08:33:43.855Z,1015.39
2016-10-08T08:34:43.865Z,1015.39
2016-10-08T08:35:43.889Z,1015.39
2016-10-08T08:36:43.915Z,1015.35
2016-10-08T08:37:44.187Z,1015.44
2016-10-08T08:38:43.959Z,1015.39
2016-10-08T08:40:44.007Z,1015.4
2016-10-08T08:41:44.032Z,1015.39
2016-10-08T08:42:44.053Z,1015.42
2016-10-08T08:43:44.429Z,1015.46
2016-10-08T08:44:44.101Z,1015.44
2016-10-08T08:45:44.124Z,1015.48
2016-10-08T08:46:44.148Z,1015.46
2016-10-08T08:47:44.172Z,1015.41
2016-10-08T08:48:44.196Z,1015.42
2016-10-08T08:49:44.219Z,1015.44
2016-10-08T08:50:44.243Z,1015.46
2016-10-08T08:51:44.267Z,1015.46
2016-10-08T08:52:44.292Z,1015.42
2016-10-08T08:53:44.318Z,1015.5
2016-10-08T08:55:44.364Z,1015.44
2016-10-08T08:56:44.389Z,1015.56
2016-10-08T08:57:44.412Z,1015.5
2016-10-08T08:58:44.439Z,1015.56
2016-10-08T08:59:44.461Z,1015.45
2016-10-08T09:00:44.484Z,1015.48
2016-10-08T09:01:44.510Z,1015.49
2016-10-08T09:02:44.533Z,1015.5
2016-10-08T09:03:44.559Z,1015.5
2016-10-08T09:04:44.580Z,1015.53
2016-10-08T09:05:44.605Z,1015.52
2016-10-08T09:06:44.630Z,1015.61
2016-10-08T09:07:44.655Z,1015.5
2016-10-08T09:08:44.680Z,1015.57
2016-10-08T09:09:44.702Z,1015.56
2016-10-08T09:10:44.729Z,1015.6
2016-10-08T09:11:44.751Z,1015.62
2016-10-08T09:12:44.776Z,1015.65
2016-10-08T09:13:44.800Z,1015.64
2016-10-08T09:14:44.823Z,1015.62
2016-10-08T09:15:44.849Z,1015.6
2016-10-08T09:16:44.872Z,1015.58
2016-10-08T09:17:44.896Z,1015.62
2016-10-08T09:18:44.922Z,1015.58
2016-10-08T09:19:44.944Z,1015.54
2016-10-08T09:20:44.968Z,1015.63
2016-10-08T09:21:44.993Z,1015.64
2016-10-08T09:22:45.017Z,1015.65
2016-10-08T09:23:45.043Z,1015.6
2016-10-08T09:24:45.066Z,1015.62
2016-10-08T09:25:45.089Z,1015.64
2016-10-08T09:27:45.139Z,1015.64
2016-10-08T09:28:45.165Z,1015.61
2016-10-08T09:29:45.187Z,1015.61
2016-10-08T09:30:45.214Z,1015.66
2016-10-08T09:31:45.237Z,1015.64
2016-10-08T09:32:45.261Z,1015.66
2016-10-08T09:33:45.285Z,1015.67
2016-10-08T09:34:45.310Z,1015.64
2016-10-08T09:35:45.335Z,1015.64
2016-10-08T09:36:45.361Z,1015.67
2016-10-08T09:37:45.384Z,1015.74
2016-10-08T09:38:45.409Z,1015.71
2016-10-08T09:39:45.437Z,1015.73
2016-10-08T09:40:45.461Z,1015.68
2016-10-08T09:41:45.486Z,1015.7
2016-10-08T09:43:45.535Z,1015.72
2016-10-08T09:44:45.559Z,1015.77
2016-10-08T09:45:45.586Z,1015.77
2016-10-08T09:46:45.612Z,1015.74
2016-10-08T09:47:45.634Z,1015.74
2016-10-08T09:48:45.659Z,1015.8
2016-10-08T09:49:45.686Z,1015.78
2016-10-08T09:50:45.711Z,1015.77
2016-10-08T09:51:45.734Z,1015.8
2016-10-08T09:52:45.757Z,1015.82
2016-10-08T09:53:45.784Z,1015.84
2016-10-08T09:54:45.806Z,1015.84
2016-10-08T09:55:45.832Z,1015.91
2016-10-08T09:56:45.857Z,1015.89
2016-10-08T09:57:45.879Z,1015.88
2016-10-08T09:59:45.928Z,1015.97
2016-10-08T10:00:45.951Z,1015.92
2016-10-08T10:01:45.976Z,1015.95
2016-10-08T10:02:46.001Z,1015.94
2016-10-08T10:03:46.023Z,1015.97
2016-10-08T10:04:46.049Z,1016
2016-10-08T10:05:46.072Z,1016
2016-10-08T10:06:46.098Z,1015.98
2016-10-08T10:07:46.120Z,1015.99
2016-10-08T10:08:46.145Z,1016
2016-10-08T10:09:46.169Z,1016.02
2016-10-08T10:10:46.194Z,1016
2016-10-08T10:11:46.218Z,1016.04
2016-10-08T10:12:46.242Z,1016.08
2016-10-08T10:13:46.264Z,1016.06
2016-10-08T10:15:46.315Z,1015.97
2016-10-08T10:16:46.338Z,1016.01
2016-10-08T10:17:46.361Z,1016.04
2016-10-08T10:18:46.385Z,1016.02
2016-10-08T10:19:46.412Z,1015.93
2016-10-08T10:20:46.433Z,1016.01
2016-10-08T10:21:46.457Z,1016.02
2016-10-08T10:22:46.481Z,1016.03
2016-10-08T10:23:46.505Z,1016.04
2016-10-08T10:24:46.528Z,1016.04
2016-10-08T10:25:46.552Z,1016.11
2016-10-08T10:26:46.579Z,1016.09
2016-10-08T10:27:46.602Z,1016.07
2016-10-08T10:28:46.627Z,1016.08
2016-10-08T10:30:46.674Z,1016.11
2016-10-08T10:31:46.695Z,1016.22
2016-10-08T10:32:46.719Z,1016.09
2016-10-08T10:33:46.745Z,1016.07
2016-10-08T10:34:46.768Z,1016.07
2016-10-08T10:35:46.791Z,1016.12
2016-10-08T10:36:46.813Z,1016.13
2016-10-08T10:37:46.837Z,1016.25
2016-10-08T10:38:46.859Z,1016.13
2016-10-08T10:39:46.884Z,1016.17
2016-10-08T10:40:46.908Z,1016.18
2016-10-08T10:41:46.931Z,1016.21
2016-10-08T10:42:46.954Z,1016.21
2016-10-08T10:43:46.977Z,1016.2
2016-10-08T10:44:47.000Z,1016.16
2016-10-08T10:45:47.022Z,1016.2
2016-10-08T10:46:47.047Z,1016.15
2016-10-08T10:47:47.068Z,1016.21
2016-10-08T10:48:47.092Z,1016.25
2016-10-08T10:49:47.114Z,1016.18
2016-10-08T10:50:47.138Z,1016.22
2016-10-08T10:51:47.163Z,1016.09
2016-10-08T10:52:47.187Z,1016.13
2016-10-08T10:53:47.220Z,1016.19
2016-10-08T10:54:47.233Z,1016.11
2016-10-08T10:55:47.255Z,1016.18
2016-10-08T10:56:47.279Z,1016.2
2016-10-08T10:57:47.302Z,1016.21
2016-10-08T10:58:47.325Z,1016.13
2016-10-08T10:59:47.351Z,1016.13
2016-10-08T11:00:47.372Z,1016.16
2016-10-08T11:02:47.421Z,1016.15
2016-10-08T11:03:47.445Z,1016.16
2016-10-08T11:04:47.468Z,1016.18
2016-10-08T11:05:47.492Z,1016.16
2016-10-08T11:06:47.516Z,1016.24
2016-10-08T11:07:47.537Z,1016.15
2016-10-08T11:08:47.560Z,1016.14
2016-10-08T11:09:47.584Z,1016.14
2016-10-08T11:10:47.607Z,1016.13
2016-10-08T11:11:47.632Z,1016.2
2016-10-08T11:12:47.654Z,1016.17
2016-10-08T11:13:47.680Z,1016.14
2016-10-08T11:14:47.701Z,1016.18
2016-10-08T11:15:47.724Z,1016.15
2016-10-08T11:16:47.748Z,1016.15
2016-10-08T11:18:47.798Z,1016.13
2016-10-08T11:19:47.818Z,1016.14
2016-10-08T11:20:47.844Z,1016.19
2016-10-08T11:21:47.866Z,1016.16
2016-10-08T11:22:47.891Z,1016.1
2016-10-08T11:23:47.912Z,1016.21
2016-10-08T11:24:47.936Z,1016.17
2016-10-08T11:25:47.962Z,1016.17
2016-10-08T11:26:47.983Z,1016.15
2016-10-08T11:27:48.009Z,1016.14
2016-10-08T11:28:48.033Z,1016.14
2016-10-08T11:29:48.056Z,1016.14
2016-10-08T11:30:48.080Z,1016.13
2016-10-08T11:31:48.103Z,1016.14
2016-10-08T11:32:48.127Z,1016.16
2016-10-08T11:34:48.172Z,1016.2
2016-10-08T11:35:48.198Z,1016.14
2016-10-08T11:36:48.220Z,1016.14
2016-10-08T11:37:48.249Z,1016.17
2016-10-08T11:38:48.266Z,1016.22
2016-10-08T11:39:48.292Z,1016.2
2016-10-08T11:40:48.316Z,1016.15
2016-10-08T11:41:48.338Z,1016.19
2016-10-08T11:42:48.613Z,1016.12
2016-10-08T11:43:48.386Z,1016.17
2016-10-08T11:44:48.409Z,1016.15
2016-10-08T11:45:48.433Z,1016.17
2016-10-08T11:46:48.454Z,1016.14
2016-10-08T11:47:48.478Z,1016.2
2016-10-08T11:48:48.503Z,1016.18
2016-10-08T11:50:48.549Z,1016.22
2016-10-08T11:51:48.574Z,1016.12
2016-10-08T11:52:48.595Z,1016.18
2016-10-08T11:53:48.620Z,1016.17
2016-10-08T11:54:48.656Z,1016.22
2016-10-08T11:55:48.915Z,1016.19
2016-10-08T11:56:48.691Z,1016.15
2016-10-08T11:57:48.715Z,1016.2
2016-10-08T11:58:48.738Z,1016.17
2016-10-08T11:59:48.761Z,1016.17
2016-10-08T12:00:48.782Z,1016.14
2016-10-08T12:01:48.808Z,1016.16
2016-10-08T12:02:48.831Z,1016.15
2016-10-08T12:03:48.855Z,1016.12
2016-10-08T12:05:48.902Z,1016.11
2016-10-08T12:06:48.924Z,1016.14
2016-10-08T12:07:48.947Z,1016.19
2016-10-08T12:08:48.973Z,1016.23
2016-10-08T12:09:48.994Z,1016.21
2016-10-08T12:10:49.017Z,1016.15
2016-10-08T12:11:49.043Z,1016.18
2016-10-08T12:12:49.065Z,1016.19
2016-10-08T12:13:49.087Z,1016.19
2016-10-08T12:14:49.113Z,1016.15
2016-10-08T12:15:49.135Z,1016.15
2016-10-08T12:16:49.158Z,1016.19
2016-10-08T12:17:49.182Z,1016.12
2016-10-08T12:18:49.205Z,1016.13
2016-10-08T12:19:49.232Z,1016.11
2016-10-08T12:20:49.256Z,1016.09
2016-10-08T12:21:49.276Z,1016.13
2016-10-08T12:22:49.303Z,1016.04
2016-10-08T12:23:49.325Z,1016.11
2016-10-08T12:24:49.349Z,1016.06
2016-10-08T12:25:49.372Z,1016.12
2016-10-08T12:26:49.396Z,1016.08
2016-10-08T12:27:49.419Z,1016.05
2016-10-08T12:28:49.443Z,1016.05
2016-10-08T12:29:49.468Z,1016.1
2016-10-08T12:30:49.492Z,1016.09
2016-10-08T12:31:49.515Z,1016.04
2016-10-08T12:32:49.537Z,1016.02
2016-10-08T12:33:49.561Z,1016.09
2016-10-08T12:34:49.585Z,1016.05
2016-10-08T12:35:49.608Z,1016.1
2016-10-08T12:37:49.656Z,1016.04
2016-10-08T12:38:49.682Z,1016.08
2016-10-08T12:39:49.702Z,1016.1
2016-10-08T12:40:49.728Z,1016.11
2016-10-08T12:41:49.750Z,1016.06
2016-10-08T12:42:49.776Z,1016.12
2016-10-08T12:43:49.796Z,1016.17
2016-10-08T12:44:49.820Z,1016.14
2016-10-08T12:45:49.846Z,1016.09
2016-10-08T12:46:49.867Z,1016.11
2016-10-08T12:47:49.891Z,1016.08
2016-10-08T12:48:49.917Z,1016.11
2016-10-08T12:49:49.938Z,1016.08